createdAt,value
2023-04-15T00:00:27.700Z,51.291218
2023-04-15T00:01:27.643Z,51.291218
2023-04-15T00:02:28.771Z,51.291550
2023-04-15T00:03:27.793Z,51.291191
2023-04-15T00:04:27.635Z,51.291458
2023-04-15T00:05:27.574Z,51.291458
2023-04-15T00:06:27.602Z,51.291458
2023-04-15T00:07:27.561Z,51.291458
2023-04-15T00:08:27.549Z,51.291458
2023-04-15T00:09:27.540Z,51.291458
2023-04-15T00:10:27.519Z,51.291458
2023-04-15T00:11:27.536Z,51.291458
2023-04-15T00:12:27.490Z,51.291458
2023-04-15T00:13:27.488Z,51.291458
2023-04-15T00:14:27.460Z,51.291458
2023-04-15T00:15:27.448Z,51.291458
2023-04-15T00:16:27.489Z,51.291458
2023-04-15T00:17:27.452Z,51.291458
2023-04-15T00:18:27.408Z,51.291458
2023-04-15T00:19:27.420Z,51.291458
2023-04-15T00:20:27.388Z,51.291458
2023-04-15T00:21:27.436Z,51.291458
2023-04-15T00:22:27.388Z,51.291248
2023-04-15T00:23:27.360Z,51.291283
2023-04-15T00:24:27.346Z,51.291290
2023-04-15T00:25:27.335Z,51.291267
2023-04-15T00:26:27.414Z,51.291199
2023-04-15T00:27:27.348Z,51.291164
2023-04-15T00:28:27.325Z,51.291279
2023-04-15T00:29:27.301Z,51.291378
2023-04-15T00:30:27.309Z,51.291199
2023-04-15T00:31:27.342Z,51.290886
2023-04-15T00:32:27.327Z,51.291080
2023-04-15T00:33:27.249Z,51.291328
2023-04-15T00:34:28.003Z,51.291286
2023-04-15T00:35:27.240Z,51.291195
2023-04-15T00:36:27.239Z,51.291199
2023-04-15T00:37:27.340Z,51.291187
2023-04-15T00:38:27.232Z,51.291199
2023-04-15T00:39:27.197Z,51.291218
2023-04-15T00:40:27.209Z,51.291180
2023-04-15T00:41:27.159Z,51.291035
2023-04-15T00:42:27.189Z,51.291149
2023-04-15T00:43:27.171Z,51.291210
2023-04-15T00:44:27.123Z,51.291187
2023-04-15T00:45:27.106Z,51.291256
2023-04-15T00:46:27.118Z,51.291248
2023-04-15T00:47:27.120Z,51.291225
2023-04-15T00:48:27.113Z,51.291183
2023-04-15T00:49:27.093Z,51.291210
2023-04-15T00:50:27.070Z,51.291210
2023-04-15T00:51:27.078Z,51.291218
2023-04-15T00:52:27.051Z,51.291256
2023-04-15T00:53:27.156Z,51.291187
2023-04-15T00:54:27.028Z,51.291172
2023-04-15T00:55:27.025Z,51.291187
2023-04-15T00:56:27.037Z,51.291153
2023-04-15T00:57:27.035Z,51.291183
2023-04-15T00:58:27.061Z,51.291084
2023-04-15T00:59:26.990Z,51.291046
2023-04-15T01:00:27.058Z,51.291054
2023-04-15T01:01:27.019Z,51.291058
2023-04-15T01:02:27.029Z,51.291191
2023-04-15T01:03:27.092Z,51.291180
2023-04-15T01:04:26.997Z,51.291142
2023-04-15T01:05:26.924Z,51.291241
2023-04-15T01:06:26.887Z,51.291092
2023-04-15T01:07:26.886Z,51.291203
2023-04-15T01:08:26.928Z,51.291157
2023-04-15T01:09:26.917Z,51.291157
2023-04-15T01:10:26.874Z,51.291183
2023-04-15T01:11:26.814Z,51.291183
2023-04-15T01:12:26.827Z,51.291183
2023-04-15T01:13:26.843Z,51.291161
2023-04-15T01:14:26.853Z,51.291176
2023-04-15T01:15:26.841Z,51.291138
2023-04-15T01:16:26.784Z,51.291164
2023-04-15T01:17:26.789Z,51.291080
2023-04-15T01:18:26.777Z,51.291061
2023-04-15T01:19:26.731Z,51.291000
2023-04-15T01:20:26.743Z,51.291134
2023-04-15T01:21:26.724Z,51.291107
2023-04-15T01:22:26.813Z,51.291183
2023-04-15T01:23:26.720Z,51.291218
2023-04-15T01:24:26.685Z,51.291149
2023-04-15T01:25:26.719Z,51.291172
2023-04-15T01:26:26.683Z,51.291042
2023-04-15T01:27:26.684Z,51.291061
2023-04-15T01:28:26.631Z,51.291134
2023-04-15T01:29:26.640Z,51.291142
2023-04-15T01:30:26.634Z,51.291176
2023-04-15T01:31:26.642Z,51.291145
2023-04-15T01:32:26.622Z,51.291183
2023-04-15T01:33:26.596Z,51.291225
2023-04-15T01:34:26.569Z,51.291393
2023-04-15T01:35:26.629Z,51.291233
2023-04-15T01:36:26.569Z,51.291229
2023-04-15T01:37:26.537Z,51.291195
2023-04-15T01:38:26.559Z,51.291180
2023-04-15T01:39:26.534Z,51.291138
2023-04-15T01:40:26.520Z,51.291142
2023-04-15T01:41:26.525Z,51.291176
2023-04-15T01:42:26.498Z,51.291237
2023-04-15T01:43:26.469Z,51.291210
2023-04-15T01:44:26.507Z,51.291195
2023-04-15T01:45:26.478Z,51.291199
2023-04-15T01:46:26.492Z,51.291115
2023-04-15T01:47:26.475Z,51.291218
2023-04-15T01:48:26.409Z,51.291172
2023-04-15T01:49:26.406Z,51.291096
2023-04-15T01:50:26.450Z,51.291130
2023-04-15T01:51:26.446Z,51.291138
2023-04-15T01:52:26.407Z,51.291183
2023-04-15T01:53:26.396Z,51.291325
2023-04-15T01:54:26.366Z,51.291195
2023-04-15T01:55:26.344Z,51.291061
2023-04-15T01:56:26.348Z,51.291168
2023-04-15T01:57:26.332Z,51.291134
2023-04-15T01:58:26.330Z,51.290909
2023-04-15T01:59:26.293Z,51.291466
2023-04-15T02:00:26.283Z,51.291565
2023-04-15T02:01:26.394Z,51.291397
2023-04-15T02:02:26.331Z,51.291580
2023-04-15T02:03:26.325Z,51.291374
2023-04-15T02:04:26.242Z,51.291088
2023-04-15T02:05:26.234Z,51.291031
2023-04-15T02:06:26.210Z,51.290916
2023-04-15T02:07:27.252Z,51.291328
2023-04-15T02:08:26.231Z,51.291405
2023-04-15T02:09:26.186Z,51.290951
2023-04-15T02:10:26.192Z,51.290890
2023-04-15T02:11:26.203Z,51.291039
2023-04-15T02:12:26.145Z,51.291218
2023-04-15T02:13:26.169Z,51.291401
2023-04-15T02:14:26.155Z,51.291191
2023-04-15T02:15:26.157Z,51.291111
2023-04-15T02:16:26.132Z,51.290924
2023-04-15T02:17:26.143Z,51.291004
2023-04-15T02:18:26.138Z,51.291080
2023-04-15T02:19:26.083Z,51.291069
2023-04-15T02:20:26.062Z,51.291008
2023-04-15T02:21:26.050Z,51.290955
2023-04-15T02:22:26.050Z,51.291149
2023-04-15T02:23:26.063Z,51.291103
2023-04-15T02:24:26.316Z,51.290951
2023-04-15T02:25:26.004Z,51.291191
2023-04-15T02:26:26.000Z,51.291103
2023-04-15T02:27:25.993Z,51.290695
2023-04-15T02:28:25.988Z,51.290634
2023-04-15T02:29:25.970Z,51.290852
2023-04-15T02:30:25.966Z,51.291096
2023-04-15T02:31:25.966Z,51.291115
2023-04-15T02:32:25.968Z,51.291130
2023-04-15T02:33:26.168Z,51.291313
2023-04-15T02:34:25.937Z,51.291161
2023-04-15T02:35:25.924Z,51.291092
2023-04-15T02:36:25.891Z,51.291187
2023-04-15T02:37:25.883Z,51.291286
2023-04-15T02:38:25.870Z,51.291340
2023-04-15T02:39:25.906Z,51.291172
2023-04-15T02:40:25.881Z,51.290962
2023-04-15T02:41:25.833Z,51.291302
2023-04-15T02:42:25.808Z,51.291031
2023-04-15T02:43:25.826Z,51.290993
2023-04-15T02:44:25.790Z,51.290993
2023-04-15T02:45:25.807Z,51.291183
2023-04-15T02:46:25.822Z,51.290955
2023-04-15T02:47:25.800Z,51.290928
2023-04-15T02:48:25.764Z,51.290951
2023-04-15T02:49:25.751Z,51.291103
2023-04-15T02:50:25.766Z,51.291065
2023-04-15T02:51:25.713Z,51.291115
2023-04-15T02:52:25.698Z,51.291237
2023-04-15T02:53:25.685Z,51.291107
2023-04-15T02:54:25.708Z,51.291080
2023-04-15T02:55:25.687Z,51.291080
2023-04-15T02:56:25.699Z,51.291004
2023-04-15T02:57:25.640Z,51.290897
2023-04-15T02:58:25.632Z,51.291054
2023-04-15T02:59:25.644Z,51.291222
2023-04-15T03:00:25.617Z,51.290894
2023-04-15T03:01:25.686Z,51.291126
2023-04-15T03:02:25.734Z,51.291256
2023-04-15T03:03:25.640Z,51.291241
2023-04-15T03:04:25.562Z,51.291237
2023-04-15T03:05:25.556Z,51.291164
2023-04-15T03:06:25.594Z,51.291283
2023-04-15T03:07:25.556Z,51.291111
2023-04-15T03:08:25.520Z,51.291374
2023-04-15T03:09:25.521Z,51.291378
2023-04-15T03:10:25.521Z,51.291332
2023-04-15T03:11:25.497Z,51.291306
2023-04-15T03:12:25.497Z,51.291275
2023-04-15T03:13:25.453Z,51.291260
2023-04-15T03:14:25.448Z,51.291271
2023-04-15T03:15:25.443Z,51.291248
2023-04-15T03:16:25.434Z,51.291237
2023-04-15T03:17:25.488Z,51.291164
2023-04-15T03:18:25.437Z,51.291214
2023-04-15T03:19:26.038Z,51.291225
2023-04-15T03:20:25.436Z,51.291252
2023-04-15T03:21:25.386Z,51.291149
2023-04-15T03:22:25.407Z,51.291187
2023-04-15T03:23:25.373Z,51.291325
2023-04-15T03:24:25.359Z,51.291325
2023-04-15T03:25:25.329Z,51.291172
2023-04-15T03:26:25.402Z,51.291191
2023-04-15T03:27:25.326Z,51.291245
2023-04-15T03:28:25.891Z,51.291252
2023-04-15T03:29:25.323Z,51.291290
2023-04-15T03:30:25.288Z,51.291225
2023-04-15T03:31:25.268Z,51.291241
2023-04-15T03:32:25.262Z,51.291195
2023-04-15T03:33:25.309Z,51.291187
2023-04-15T03:34:25.221Z,51.291218
2023-04-15T03:35:25.236Z,51.291183
2023-04-15T03:36:25.225Z,51.291233
2023-04-15T03:37:25.228Z,51.291050
2023-04-15T03:38:25.216Z,51.291065
2023-04-15T03:39:25.189Z,51.291111
2023-04-15T03:40:25.167Z,51.291031
2023-04-15T03:41:25.159Z,51.291115
2023-04-15T03:42:25.166Z,51.291214
2023-04-15T03:43:25.125Z,51.291157
2023-04-15T03:44:25.157Z,51.291012
2023-04-15T03:45:25.150Z,51.291096
2023-04-15T03:46:25.102Z,51.291317
2023-04-15T03:47:25.118Z,51.291298
2023-04-15T03:48:25.097Z,51.291283
2023-04-15T03:49:25.141Z,51.291264
2023-04-15T03:50:25.052Z,51.291328
2023-04-15T03:51:26.037Z,51.291279
2023-04-15T03:52:25.049Z,51.291222
2023-04-15T03:53:24.999Z,51.291126
2023-04-15T03:54:25.023Z,51.291298
2023-04-15T03:55:25.055Z,51.291195
2023-04-15T03:56:25.004Z,51.291046
2023-04-15T03:57:24.980Z,51.290943
2023-04-15T03:58:24.989Z,51.291142
2023-04-15T03:59:24.929Z,51.291134
2023-04-15T04:00:24.970Z,51.291019
2023-04-15T04:01:24.929Z,51.291180
2023-04-15T05:50:45.196Z,51.291264
2023-04-15T05:51:45.197Z,51.291172
2023-04-15T05:52:45.162Z,51.291187
2023-04-15T05:53:45.226Z,51.291290
2023-04-15T05:54:45.136Z,51.291359
2023-04-15T05:55:45.598Z,51.291298
2023-04-15T05:56:45.215Z,51.291183
2023-04-15T05:57:45.097Z,51.291203
2023-04-15T05:58:45.106Z,51.291206
2023-04-15T05:59:45.092Z,51.291126
2023-04-15T06:00:45.048Z,51.291145
2023-04-15T06:01:45.271Z,51.291222
2023-04-15T06:02:45.213Z,51.291222
2023-04-15T06:03:45.272Z,51.291180
2023-04-15T06:04:45.488Z,51.291164
2023-04-15T06:05:45.036Z,51.291168
2023-04-15T06:06:45.005Z,51.291161
2023-04-15T06:07:47.348Z,51.291172
2023-04-15T06:08:44.982Z,51.291317
2023-04-15T06:09:45.006Z,51.291248
2023-04-15T06:10:44.952Z,51.291195
2023-04-15T06:11:44.969Z,51.291237
2023-04-15T06:12:44.964Z,51.291256
2023-04-15T06:13:44.935Z,51.291229
2023-04-15T06:14:44.976Z,51.291229
2023-04-15T06:15:44.932Z,51.291161
2023-04-15T06:16:44.958Z,51.291157
2023-04-15T06:17:44.961Z,51.291164
2023-04-15T06:18:44.910Z,51.291142
2023-04-15T06:19:44.875Z,51.291172
2023-04-15T06:20:44.844Z,51.291199
2023-04-15T06:21:44.860Z,51.291214
2023-04-15T06:22:44.822Z,51.291237
2023-04-15T06:23:44.867Z,51.291218
2023-04-15T06:24:44.801Z,51.291222
2023-04-15T06:25:44.783Z,51.291229
2023-04-15T06:26:44.797Z,51.291222
2023-04-15T06:27:44.849Z,51.291191
2023-04-15T06:28:44.784Z,51.291214
2023-04-15T06:29:44.744Z,51.291294
2023-04-15T06:31:44.735Z,51.291206
2023-04-15T06:32:44.745Z,51.291138
2023-04-15T06:33:44.840Z,51.291256
2023-04-15T06:34:44.696Z,51.291210
2023-04-15T06:35:44.668Z,51.291164
2023-04-15T06:36:44.671Z,51.291237
2023-04-15T06:37:44.650Z,51.291180
